Time;durP1;ratioP1;P1;durP2;ratioP2;P2;SDS_P1;SDS_P2;PMS_P1;PMS_P2;Temp;Humidity;BMP_temperature;BMP_pressure;BME280_temperature;BME280_humidity;BME280_pressure;Samples;Min_cycle;Max_cycle;Signal;HPM_P1;HPM_P2
2022/02/26 00:00:27;;;;;;;12.73;4.50;;;2.60;99.90;;;;;;5078705;28;20180;-81
2022/02/26 00:02:53;;;;;;;6.83;3.43;;;2.60;99.90;;;;;;5079040;28;20223;-82
2022/02/26 00:05:19;;;;;;;6.70;3.70;;;2.50;99.90;;;;;;5079342;28;20454;-82
2022/02/26 00:07:44;;;;;;;9.07;3.90;;;2.50;99.90;;;;;;5078933;28;20209;-80
2022/02/26 00:10:10;;;;;;;8.00;3.83;;;2.50;99.90;;;;;;5078236;28;20926;-80
2022/02/26 00:12:36;;;;;;;12.50;5.57;;;2.50;99.90;;;;;;5078344;28;20173;-81
2022/02/26 00:15:02;;;;;;;12.50;4.57;;;2.50;99.90;;;;;;5078305;28;20181;-80
2022/02/26 00:17:27;;;;;;;12.43;4.50;;;2.40;99.90;;;;;;5077835;28;20197;-80
2022/02/26 00:19:53;;;;;;;19.43;4.73;;;2.50;99.90;;;;;;5077321;28;20717;-81
2022/02/26 00:22:19;;;;;;;12.20;4.20;;;2.30;99.90;;;;;;5078636;28;20179;-79
2022/02/26 00:24:45;;;;;;;14.47;4.93;;;2.40;99.90;;;;;;5077344;28;20192;-80
2022/02/26 00:27:10;;;;;;;10.50;4.07;;;2.40;99.90;;;;;;5076840;28;20455;-80
2022/02/26 00:29:37;;;;;;;10.67;4.70;;;2.40;99.90;;;;;;5077555;28;20209;-80
2022/02/26 00:32:03;;;;;;;7.23;3.63;;;2.50;99.90;;;;;;5077334;28;20202;-81
2022/02/26 00:34:30;;;;;;;10.03;4.53;;;2.50;99.90;;;;;;5077209;28;20438;-80
2022/02/26 00:36:56;;;;;;;9.70;3.80;;;2.50;99.90;;;;;;5076965;28;20440;-81
2022/02/26 00:39:21;;;;;;;13.10;4.27;;;2.60;99.90;;;;;;5077035;28;20435;-81
2022/02/26 00:41:48;;;;;;;12.40;4.10;;;2.70;99.90;;;;;;5076860;28;20413;-79
2022/02/26 00:44:14;;;;;;;7.80;3.67;;;2.70;99.90;;;;;;5077393;28;20607;-82
2022/02/26 00:46:39;;;;;;;10.50;4.63;;;2.70;99.90;;;;;;5077390;28;20444;-81
2022/02/26 00:51:50;;;;;;;9.23;4.83;;;2.90;99.90;;;;;;5095930;28;20230;-80
2022/02/26 00:54:16;;;;;;;11.60;4.67;;;2.90;99.90;;;;;;5077493;28;20501;-79
2022/02/26 00:56:42;;;;;;;14.53;4.73;;;2.90;99.90;;;;;;5077140;28;20451;-80
2022/02/26 00:59:09;;;;;;;11.10;4.40;;;3.00;99.90;;;;;;5077877;28;20274;-80
2022/02/26 01:01:35;;;;;;;8.33;3.63;;;2.90;99.90;;;;;;5077315;28;20423;-80
2022/02/26 01:04:03;;;;;;;6.70;3.40;;;2.90;99.90;;;;;;5077241;28;20423;-80
2022/02/26 01:06:29;;;;;;;7.17;4.10;;;2.90;99.90;;;;;;5076703;28;20453;-79
2022/02/26 01:08:54;;;;;;;8.37;4.50;;;2.80;99.90;;;;;;5077441;28;20455;-81
2022/02/26 01:11:20;;;;;;;9.03;3.23;;;2.90;99.90;;;;;;5077390;28;20429;-83
2022/02/26 01:13:46;;;;;;;11.47;3.70;;;2.90;99.90;;;;;;5078625;28;20208;-82
2022/02/26 01:16:12;;;;;;;7.67;4.17;;;2.90;99.90;;;;;;5077951;28;20283;-82
2022/02/26 01:18:38;;;;;;;8.53;4.40;;;2.90;99.90;;;;;;5077936;28;20207;-80
2022/02/26 01:21:04;;;;;;;7.03;4.60;;;3.00;99.90;;;;;;5078126;28;20420;-80
2022/02/26 01:23:30;;;;;;;8.60;4.30;;;3.00;99.90;;;;;;5078170;28;20689;-82
2022/02/26 01:25:55;;;;;;;6.60;4.23;;;3.10;99.90;;;;;;5077788;28;20199;-81
2022/02/26 01:28:21;;;;;;;9.07;4.40;;;3.20;99.90;;;;;;5077127;28;20451;-81
2022/02/26 01:30:47;;;;;;;11.03;4.23;;;3.20;99.90;;;;;;5077463;28;20174;-81
2022/02/26 01:33:14;;;;;;;14.73;4.63;;;3.30;99.90;;;;;;5077730;28;20473;-82
2022/02/26 01:35:39;;;;;;;7.47;4.27;;;3.30;99.90;;;;;;5077474;28;20575;-81
2022/02/26 01:38:05;;;;;;;11.67;4.63;;;3.40;99.90;;;;;;5077181;28;20523;-82
2022/02/26 01:40:31;;;;;;;7.10;4.30;;;3.40;99.90;;;;;;5076988;28;20284;-81
2022/02/26 01:42:57;;;;;;;8.73;4.63;;;3.40;99.90;;;;;;5076925;28;20185;-80
2022/02/26 01:45:26;;;;;;;12.07;4.87;;;3.40;99.90;;;;;;5077107;28;20423;-81
2022/02/26 01:47:53;;;;;;;11.10;5.03;;;3.30;99.90;;;;;;5076745;28;20300;-81
2022/02/26 01:50:19;;;;;;;7.13;3.97;;;3.40;99.90;;;;;;5076790;28;20417;-79
2022/02/26 01:52:44;;;;;;;8.93;4.57;;;3.40;99.90;;;;;;5076521;28;20483;-79
2022/02/26 01:55:11;;;;;;;8.87;3.80;;;3.50;99.90;;;;;;5080288;28;20419;-82
2022/02/26 01:57:37;;;;;;;11.77;4.50;;;3.50;99.90;;;;;;5080039;28;20217;-79
2022/02/26 02:00:09;;;;;;;18.50;5.70;;;3.50;99.90;;;;;;5080280;28;20419;-79
2022/02/26 02:02:35;;;;;;;12.13;4.50;;;3.60;99.90;;;;;;5080309;28;20416;-81
2022/02/26 02:05:02;;;;;;;12.07;6.53;;;3.60;99.90;;;;;;5080271;28;20446;-80
2022/02/26 02:07:28;;;;;;;18.03;5.30;;;3.60;99.90;;;;;;5079755;28;20442;-81
2022/02/26 02:09:54;;;;;;;9.10;4.83;;;3.70;99.90;;;;;;5079667;28;20464;-80
2022/02/26 02:12:20;;;;;;;11.60;4.50;;;3.60;99.90;;;;;;5079843;28;20462;-81
2022/02/26 02:14:47;;;;;;;12.70;5.57;;;3.70;99.90;;;;;;5079602;28;20418;-81
2022/02/26 02:17:13;;;;;;;10.60;4.90;;;3.70;99.90;;;;;;5079544;28;20443;-81
2022/02/26 02:19:39;;;;;;;18.20;6.00;;;3.70;99.90;;;;;;5079738;28;20416;-81
2022/02/26 02:22:06;;;;;;;12.07;6.73;;;3.70;99.90;;;;;;5079399;28;20420;-82
2022/02/26 02:24:33;;;;;;;14.13;5.43;;;3.70;99.90;;;;;;5079652;28;20477;-79
2022/02/26 02:27:00;;;;;;;16.53;6.07;;;3.80;99.90;;;;;;5079330;28;20954;-80
2022/02/26 02:29:27;;;;;;;10.47;6.47;;;3.90;99.90;;;;;;5079419;28;20464;-81
2022/02/26 02:31:53;;;;;;;11.13;6.07;;;3.90;99.90;;;;;;5079971;28;20413;-80
2022/02/26 02:34:19;;;;;;;10.40;5.60;;;4.00;99.90;;;;;;5079075;28;20946;-80
2022/02/26 02:36:46;;;;;;;12.07;5.60;;;4.00;99.90;;;;;;5078825;28;20435;-81
2022/02/26 02:39:14;;;;;;;12.67;6.00;;;4.00;99.90;;;;;;5079226;28;20942;-80
2022/02/26 02:41:41;;;;;;;12.87;5.30;;;4.10;99.90;;;;;;5078965;28;20422;-81
2022/02/26 02:44:07;;;;;;;10.23;5.60;;;4.00;99.90;;;;;;5078957;28;20424;-79
2022/02/26 02:46:34;;;;;;;18.77;6.40;;;4.00;99.90;;;;;;5078545;28;20437;-80
2022/02/26 02:49:00;;;;;;;11.43;6.40;;;3.90;99.90;;;;;;5078751;28;20541;-80
2022/02/26 02:51:26;;;;;;;12.17;6.27;;;3.80;99.90;;;;;;5079186;28;20415;-79
2022/02/26 02:53:51;;;;;;;10.97;6.50;;;3.80;99.90;;;;;;5078657;28;20408;-81
2022/02/26 02:56:17;;;;;;;9.47;5.47;;;3.70;99.90;;;;;;5078575;28;20240;-79
2022/02/26 02:58:43;;;;;;;13.93;6.00;;;3.80;99.90;;;;;;5078811;28;20268;-79
2022/02/26 03:01:09;;;;;;;9.83;6.00;;;3.80;99.90;;;;;;5079008;28;20188;-79
2022/02/26 03:03:35;;;;;;;14.53;7.50;;;3.80;99.90;;;;;;5078115;28;20223;-79
2022/02/26 03:06:00;;;;;;;12.33;7.17;;;3.90;99.90;;;;;;5078565;28;20447;-81
2022/02/26 03:08:26;;;;;;;12.90;7.03;;;3.80;99.90;;;;;;5078272;28;20208;-80
2022/02/26 03:10:53;;;;;;;13.40;7.00;;;3.80;99.90;;;;;;5078374;28;20184;-80
2022/02/26 03:13:20;;;;;;;13.60;8.50;;;3.80;99.90;;;;;;5078579;28;20504;-80
2022/02/26 03:15:48;;;;;;;14.00;8.17;;;3.70;99.90;;;;;;5077996;28;20413;-81
2022/02/26 03:18:14;;;;;;;21.50;8.40;;;3.70;99.90;;;;;;5077850;28;20420;-79
2022/02/26 03:20:39;;;;;;;15.83;6.87;;;3.70;99.90;;;;;;5078290;28;20986;-80
2022/02/26 03:23:05;;;;;;;24.60;7.30;;;3.70;99.90;;;;;;5078222;28;20185;-80
2022/02/26 03:25:31;;;;;;;15.60;7.50;;;3.70;99.90;;;;;;5078490;28;20474;-79
2022/02/26 03:27:57;;;;;;;14.17;8.13;;;3.70;99.90;;;;;;5078069;28;20209;-79
2022/02/26 03:30:22;;;;;;;15.83;6.93;;;3.70;99.90;;;;;;5078084;28;20186;-80
2022/02/26 03:32:48;;;;;;;16.60;7.87;;;3.60;99.90;;;;;;5078184;28;20174;-81
2022/02/26 03:35:14;;;;;;;18.50;7.50;;;3.60;99.90;;;;;;5077092;28;20226;-79
2022/02/26 03:37:40;;;;;;;13.50;7.80;;;3.50;99.90;;;;;;5076616;28;20198;-79
2022/02/26 03:40:08;;;;;;;11.57;6.97;;;3.50;99.90;;;;;;5077124;28;20438;-79
2022/02/26 03:42:34;;;;;;;15.90;7.40;;;3.40;99.90;;;;;;5077004;28;20869;-79
2022/02/26 03:45:00;;;;;;;13.80;8.27;;;3.40;99.90;;;;;;5076835;28;20519;-79
2022/02/26 03:47:26;;;;;;;16.77;8.07;;;3.30;99.90;;;;;;5076970;28;20529;-81
2022/02/26 03:49:52;;;;;;;14.57;7.70;;;3.20;99.90;;;;;;5077901;28;20484;-80
2022/02/26 03:52:20;;;;;;;12.23;6.47;;;3.20;99.90;;;;;;5077610;28;20178;-79
2022/02/26 03:54:46;;;;;;;14.60;7.37;;;3.10;99.90;;;;;;5078010;28;20423;-79
2022/02/26 03:57:12;;;;;;;17.93;6.90;;;3.00;99.90;;;;;;5077631;28;20436;-80
2022/02/26 03:59:38;;;;;;;13.23;8.47;;;3.00;99.90;;;;;;5077458;28;20549;-78
2022/02/26 04:02:04;;;;;;;18.83;7.20;;;2.90;99.90;;;;;;5077908;28;20818;-79
2022/02/26 04:04:30;;;;;;;17.27;7.97;;;2.90;99.90;;;;;;5078174;28;20182;-79
2022/02/26 04:06:56;;;;;;;21.30;8.03;;;2.80;99.90;;;;;;5078386;28;20922;-79
2022/02/26 04:09:22;;;;;;;9.70;7.70;;;2.70;99.90;;;;;;5078214;28;20212;-82
2022/02/26 04:11:50;;;;;;;11.60;9.40;;;2.60;99.90;;;;;;5061872;28;20206;-81
2022/02/26 04:14:15;;;;;;;14.10;6.83;;;2.50;99.90;;;;;;5078026;28;20456;-81
2022/02/26 04:16:41;;;;;;;13.53;7.70;;;2.50;99.90;;;;;;5077130;28;20444;-79
2022/02/26 04:19:07;;;;;;;11.17;7.80;;;2.40;99.90;;;;;;5078157;28;20249;-80
2022/02/26 04:21:33;;;;;;;18.00;8.33;;;2.30;99.90;;;;;;5078299;28;20191;-81
2022/02/26 04:24:03;;;;;;;17.17;7.37;;;2.30;99.90;;;;;;5078400;28;20196;-80
2022/02/26 04:26:28;;;;;;;23.63;7.90;;;2.20;99.90;;;;;;5077576;28;20443;-80
2022/02/26 04:28:55;;;;;;;14.03;7.70;;;2.20;99.90;;;;;;5078288;28;20468;-80
2022/02/26 04:31:22;;;;;;;12.90;7.63;;;2.10;99.90;;;;;;5078217;28;20642;-80
2022/02/26 04:33:48;;;;;;;10.20;7.53;;;2.10;99.90;;;;;;5031953;28;1158124;-79
2022/02/26 04:36:14;;;;;;;14.30;8.00;;;2.10;99.90;;;;;;5066500;28;20207;-80
2022/02/26 04:38:41;;;;;;;10.00;7.60;;;2.10;99.90;;;;;;5078646;28;20429;-80
2022/02/26 04:41:07;;;;;;;18.33;7.83;;;2.00;99.90;;;;;;5078499;28;20184;-81
2022/02/26 04:43:37;;;;;;;12.27;7.60;;;2.00;99.90;;;;;;5078944;28;20856;-80
2022/02/26 04:46:03;;;;;;;17.40;7.20;;;2.00;99.90;;;;;;5078295;28;20964;-81
2022/02/26 04:48:29;;;;;;;24.60;8.93;;;1.90;99.90;;;;;;5077844;28;20461;-80
2022/02/26 04:50:55;;;;;;;13.93;7.97;;;1.90;99.90;;;;;;5078321;28;20420;-80
2022/02/26 04:53:21;;;;;;;11.63;8.07;;;1.90;99.90;;;;;;5078430;28;20468;-79
2022/02/26 04:55:47;;;;;;;14.20;8.13;;;1.80;99.90;;;;;;5078531;28;20409;-80
2022/02/26 04:58:13;;;;;;;12.90;7.00;;;1.80;99.90;;;;;;5077921;28;20412;-81
2022/02/26 05:00:39;;;;;;;9.20;7.37;;;1.80;99.90;;;;;;5077817;28;20487;-79
2022/02/26 05:03:04;;;;;;;13.50;7.50;;;1.80;99.90;;;;;;5077739;28;20184;-81
2022/02/26 05:05:30;;;;;;;15.53;7.63;;;1.70;99.90;;;;;;5077968;28;20254;-80
2022/02/26 05:07:56;;;;;;;12.10;6.87;;;1.70;99.90;;;;;;5077380;28;20221;-81
2022/02/26 05:10:22;;;;;;;12.23;7.03;;;1.70;99.90;;;;;;5077609;28;20171;-80
2022/02/26 05:12:47;;;;;;;10.30;7.40;;;1.70;99.90;;;;;;5077490;28;20261;-81
2022/02/26 05:15:13;;;;;;;16.80;8.33;;;1.70;99.90;;;;;;5077493;28;20531;-81
2022/02/26 05:17:40;;;;;;;13.80;8.80;;;1.60;99.90;;;;;;5078219;28;20693;-80
2022/02/26 05:20:07;;;;;;;11.23;6.73;;;1.60;99.90;;;;;;5077851;28;20421;-79
2022/02/26 05:22:37;;;;;;;9.40;7.70;;;1.60;99.90;;;;;;5077257;28;20410;-80
2022/02/26 05:25:04;;;;;;;11.63;7.93;;;1.60;99.90;;;;;;5077750;28;20471;-80
2022/02/26 05:27:30;;;;;;;15.97;7.37;;;1.60;99.90;;;;;;5079240;28;20459;-80
2022/02/26 05:29:56;;;;;;;9.60;6.90;;;1.50;99.90;;;;;;5081574;28;20454;-81
2022/02/26 05:32:22;;;;;;;13.97;8.00;;;1.60;99.90;;;;;;5081188;28;20773;-81
2022/02/26 05:34:51;;;;;;;10.40;7.23;;;1.50;99.90;;;;;;5103285;22;20528;-82
2022/02/26 05:37:19;;;;;;;16.33;8.17;;;1.50;99.90;;;;;;5037439;28;20238;-81
2022/02/26 05:39:45;;;;;;;14.47;7.70;;;1.40;99.90;;;;;;5038583;28;20802;-81
2022/02/26 05:42:11;;;;;;;10.70;7.20;;;1.40;99.90;;;;;;5038640;28;20423;-81
2022/02/26 05:44:37;;;;;;;14.10;7.43;;;1.40;99.90;;;;;;5038432;28;20426;-81
2022/02/26 05:47:03;;;;;;;12.20;6.63;;;1.30;99.90;;;;;;5054880;28;20528;-81
2022/02/26 05:49:28;;;;;;;8.87;7.33;;;1.40;99.90;;;;;;5056797;28;20211;-81
2022/02/26 05:51:54;;;;;;;10.30;6.77;;;1.40;99.90;;;;;;5056475;28;20418;-82
2022/02/26 05:54:19;;;;;;;12.80;7.53;;;1.50;99.90;;;;;;5056550;28;20172;-81
2022/02/26 05:56:45;;;;;;;13.67;7.43;;;1.60;99.90;;;;;;5055875;28;20193;-81
2022/02/26 05:59:11;;;;;;;13.37;7.60;;;1.70;99.90;;;;;;5056343;28;20185;-81
2022/02/26 06:01:36;;;;;;;12.13;7.93;;;1.70;99.90;;;;;;5038477;28;20192;-82
2022/02/26 06:04:02;;;;;;;13.10;7.20;;;1.80;99.90;;;;;;5056158;28;20193;-81
2022/02/26 06:06:27;;;;;;;12.70;7.07;;;1.90;99.90;;;;;;5055486;28;20208;-81
2022/02/26 06:08:53;;;;;;;11.57;6.53;;;2.00;99.90;;;;;;5055679;28;20204;-81
2022/02/26 06:11:21;;;;;;;17.90;7.30;;;2.10;99.90;;;;;;5055850;28;20182;-82
2022/02/26 06:13:47;;;;;;;13.83;6.97;;;2.10;99.90;;;;;;5055533;28;20192;-81
2022/02/26 06:16:15;;;;;;;13.43;7.90;;;2.20;99.90;;;;;;5054313;28;20447;-81
2022/02/26 06:18:40;;;;;;;12.63;7.87;;;2.20;99.90;;;;;;5055731;28;20203;-81
2022/02/26 06:21:06;;;;;;;11.40;8.67;;;2.30;99.90;;;;;;5055866;28;21080;-81
2022/02/26 06:23:32;;;;;;;12.63;7.13;;;2.40;99.90;;;;;;5037714;28;20188;-81
2022/02/26 06:25:57;;;;;;;15.00;7.50;;;2.40;99.90;;;;;;5037318;28;20258;-81
2022/02/26 06:28:23;;;;;;;18.90;7.77;;;2.50;99.90;;;;;;5054915;28;20571;-82
2022/02/26 06:30:48;;;;;;;15.93;7.70;;;2.60;99.90;;;;;;5055338;28;20586;-81
2022/02/26 06:33:14;;;;;;;10.17;6.97;;;2.70;99.90;;;;;;5055689;28;20217;-81
2022/02/26 06:35:41;;;;;;;13.80;9.43;;;2.70;99.90;;;;;;5054698;28;20210;-81
2022/02/26 06:38:07;;;;;;;18.57;8.70;;;2.80;99.90;;;;;;5054484;28;20258;-82
2022/02/26 06:40:33;;;;;;;14.60;8.37;;;2.90;99.90;;;;;;5054662;28;20405;-81
2022/02/26 06:42:59;;;;;;;16.90;8.33;;;3.00;99.90;;;;;;5055006;28;20447;-81
2022/02/26 06:45:24;;;;;;;19.10;8.00;;;3.10;99.90;;;;;;5054802;28;20467;-81
2022/02/26 06:47:50;;;;;;;13.37;8.60;;;3.10;99.90;;;;;;5036846;28;20425;-81
2022/02/26 06:50:16;;;;;;;13.03;8.20;;;3.20;99.90;;;;;;5054638;28;20213;-82
2022/02/26 06:52:42;;;;;;;11.97;8.07;;;3.30;99.90;;;;;;5053626;28;20274;-81
2022/02/26 06:55:08;;;;;;;11.73;8.63;;;3.40;99.90;;;;;;5054734;28;20433;-81
2022/02/26 06:57:34;;;;;;;12.53;8.20;;;3.40;99.90;;;;;;5036512;28;20183;-82
2022/02/26 06:59:59;;;;;;;16.23;8.47;;;3.50;99.90;;;;;;5054932;28;20799;-81
2022/02/26 07:02:25;;;;;;;15.40;8.87;;;3.60;99.90;;;;;;5053245;28;20274;-81
2022/02/26 07:04:50;;;;;;;14.33;9.00;;;3.60;99.90;;;;;;5054561;28;20289;-81
2022/02/26 07:07:16;;;;;;;19.80;10.50;;;3.70;99.90;;;;;;5053849;28;20187;-81
2022/02/26 07:09:42;;;;;;;15.70;9.43;;;3.80;99.90;;;;;;5036594;28;20218;-81
2022/02/26 07:12:08;;;;;;;15.03;9.30;;;3.80;99.90;;;;;;5054237;28;20176;-81
2022/02/26 07:14:34;;;;;;;18.10;10.57;;;3.90;99.90;;;;;;5054178;28;20610;-82
2022/02/26 07:17:00;;;;;;;17.63;10.60;;;4.00;99.90;;;;;;5053157;28;20465;-81
2022/02/26 07:19:25;;;;;;;18.60;10.57;;;4.00;99.90;;;;;;5036565;28;20187;-81
2022/02/26 07:21:51;;;;;;;13.57;9.50;;;4.00;99.90;;;;;;5036689;28;20728;-81
2022/02/26 07:24:17;;;;;;;13.67;9.57;;;4.20;99.90;;;;;;5054304;28;20180;-82
2022/02/26 07:26:42;;;;;;;16.27;9.67;;;4.20;99.90;;;;;;5053922;28;20560;-82
2022/02/26 07:29:08;;;;;;;12.70;10.20;;;4.30;99.90;;;;;;5036329;28;20511;-81
2022/02/26 07:31:33;;;;;;;21.47;10.80;;;4.30;99.90;;;;;;5036468;28;20190;-81
2022/02/26 07:33:59;;;;;;;16.70;9.80;;;4.40;99.90;;;;;;5054113;28;20561;-81
2022/02/26 07:36:25;;;;;;;17.77;10.23;;;4.50;99.90;;;;;;5053816;28;20227;-82
2022/02/26 07:38:50;;;;;;;15.80;9.63;;;4.50;99.90;;;;;;5054244;28;20270;-81
2022/02/26 07:41:16;;;;;;;15.23;9.30;;;4.50;99.90;;;;;;5054203;28;20180;-81
2022/02/26 07:43:42;;;;;;;12.20;8.00;;;4.60;99.90;;;;;;5053999;28;20183;-81
2022/02/26 07:46:08;;;;;;;22.63;9.90;;;4.60;99.90;;;;;;5053587;28;20568;-81
2022/02/26 07:48:35;;;;;;;15.33;9.80;;;4.70;99.90;;;;;;5053802;28;20549;-82
2022/02/26 07:51:00;;;;;;;14.03;8.60;;;4.70;99.90;;;;;;5053735;28;20256;-81
2022/02/26 07:53:26;;;;;;;14.67;8.97;;;4.80;99.90;;;;;;5053714;28;20517;-81
2022/02/26 07:55:52;;;;;;;18.83;9.77;;;4.90;99.90;;;;;;5035421;28;20793;-82
2022/02/26 07:58:20;;;;;;;19.47;9.20;;;4.90;99.90;;;;;;5052399;28;20658;-81
2022/02/26 08:00:45;;;;;;;19.93;10.73;;;5.00;99.90;;;;;;5053493;28;20473;-82
2022/02/26 08:03:11;;;;;;;17.63;9.57;;;5.10;99.90;;;;;;5053334;28;20414;-82
2022/02/26 08:05:36;;;;;;;16.33;10.00;;;5.10;99.90;;;;;;5053298;28;20627;-82
2022/02/26 08:08:02;;;;;;;16.67;10.43;;;5.20;99.90;;;;;;5052903;28;20204;-82
2022/02/26 08:10:28;;;;;;;27.03;11.57;;;5.20;99.90;;;;;;5053506;28;20198;-82
2022/02/26 08:12:55;;;;;;;20.30;12.10;;;5.30;99.90;;;;;;5053343;28;20603;-83
2022/02/26 08:15:24;;;;;;;20.40;13.57;;;5.50;99.90;;;;;;5052986;28;20527;-82
2022/02/26 08:17:49;;;;;;;23.90;13.17;;;5.60;99.90;;;;;;5053019;28;20985;-82
2022/02/26 08:20:16;;;;;;;19.10;12.77;;;5.70;99.90;;;;;;5053554;28;20413;-82
2022/02/26 08:22:43;;;;;;;26.43;12.37;;;5.90;99.90;;;;;;5053063;28;20213;-82
2022/02/26 08:25:09;;;;;;;20.97;12.30;;;6.10;99.90;;;;;;5056089;28;20853;-84
2022/02/26 08:27:36;;;;;;;23.03;12.13;;;6.20;99.90;;;;;;5057062;28;20436;-82
2022/02/26 08:30:03;;;;;;;30.57;14.20;;;6.30;99.90;;;;;;5056387;28;20464;-83
2022/02/26 08:32:29;;;;;;;24.27;13.37;;;6.40;99.90;;;;;;5056714;28;20918;-83
2022/02/26 08:34:54;;;;;;;31.00;13.53;;;6.60;99.90;;;;;;5056008;28;20433;-83
2022/02/26 08:37:20;;;;;;;28.03;13.90;;;6.60;99.90;;;;;;5056253;28;20178;-85
2022/02/26 08:39:46;;;;;;;23.73;12.60;;;6.70;99.90;;;;;;5054792;28;20293;-83
2022/02/26 08:42:11;;;;;;;31.53;14.93;;;6.80;99.90;;;;;;5056032;28;20278;-82
2022/02/26 08:44:38;;;;;;;28.73;14.87;;;6.80;99.90;;;;;;5056007;28;20183;-83
2022/02/26 08:47:04;;;;;;;30.87;15.37;;;6.90;99.90;;;;;;5055513;28;20183;-82
2022/02/26 08:49:30;;;;;;;25.90;13.40;;;7.10;99.90;;;;;;5037530;28;20468;-83
2022/02/26 08:51:55;;;;;;;29.30;15.13;;;7.30;99.90;;;;;;5056002;28;20508;-82
2022/02/26 08:54:21;;;;;;;37.27;16.37;;;7.20;99.90;;;;;;5055749;28;20184;-83
2022/02/26 08:56:47;;;;;;;27.67;15.73;;;7.30;99.90;;;;;;5055088;28;20207;-84
2022/02/26 08:59:13;;;;;;;32.07;17.53;;;7.40;99.90;;;;;;5038017;28;20186;-82
2022/02/26 09:01:40;;;;;;;42.20;19.03;;;7.50;99.90;;;;;;5036984;28;20197;-82
2022/02/26 09:04:06;;;;;;;31.70;16.50;;;7.60;99.90;;;;;;5055480;28;20187;-83
2022/02/26 09:06:31;;;;;;;33.63;16.87;;;7.50;99.90;;;;;;5054575;28;20445;-83
2022/02/26 09:08:58;;;;;;;33.90;16.90;;;7.70;99.90;;;;;;5055430;28;20459;-83
2022/02/26 09:11:23;;;;;;;33.00;16.43;;;7.80;99.90;;;;;;5037205;28;20180;-83
2022/02/26 09:13:49;;;;;;;35.03;17.23;;;7.80;99.90;;;;;;5036875;28;20417;-83
2022/02/26 09:16:15;;;;;;;31.87;16.30;;;7.90;99.90;;;;;;5054444;28;20367;-83
2022/02/26 09:18:42;;;;;;;36.97;18.77;;;8.00;99.90;;;;;;5054430;28;20194;-83
2022/02/26 09:21:09;;;;;;;36.03;14.93;;;8.00;99.90;;;;;;5053736;28;21015;-83
2022/02/26 09:23:36;;;;;;;31.70;15.60;;;7.90;99.90;;;;;;5052972;28;20424;-82
2022/02/26 09:26:04;;;;;;;34.93;15.87;;;7.90;99.90;;;;;;5054554;28;20442;-82
2022/02/26 09:28:34;;;;;;;33.70;16.43;;;8.10;99.90;;;;;;5054007;28;20449;-83
2022/02/26 09:31:01;;;;;;;41.23;17.03;;;8.40;99.90;;;;;;5036802;28;20453;-84
2022/02/26 09:33:29;;;;;;;36.67;17.50;;;8.70;99.90;;;;;;5036532;28;20422;-82
2022/02/26 09:35:55;;;;;;;28.87;15.07;;;9.00;99.90;;;;;;5053954;28;20446;-82
2022/02/26 09:38:20;;;;;;;37.73;17.70;;;9.20;99.90;;;;;;5053652;28;20506;-83
2022/02/26 09:40:46;;;;;;;33.80;16.37;;;9.20;99.90;;;;;;5054311;28;20544;-82
2022/02/26 09:43:12;;;;;;;36.10;15.40;;;9.20;99.90;;;;;;5054597;28;20176;-82
2022/02/26 09:45:38;;;;;;;41.50;15.27;;;9.10;99.90;;;;;;5055016;28;20674;-82
2022/02/26 09:48:03;;;;;;;36.30;15.27;;;8.90;99.90;;;;;;5035995;28;20442;-83
2022/02/26 09:50:29;;;;;;;29.63;15.83;;;8.60;99.90;;;;;;5054009;28;20180;-82
2022/02/26 09:52:55;;;;;;;33.00;15.17;;;8.70;99.90;;;;;;5053898;28;20180;-83
2022/02/26 09:55:21;;;;;;;28.23;16.13;;;9.00;99.90;;;;;;5053981;28;20206;-83
2022/02/26 09:57:47;;;;;;;25.80;13.47;;;9.30;99.90;;;;;;5053810;28;20499;-82
2022/02/26 10:00:14;;;;;;;26.40;14.60;;;9.40;99.90;;;;;;5053708;28;20416;-83
2022/02/26 10:02:40;;;;;;;25.27;12.70;;;9.40;99.90;;;;;;5053932;28;20549;-82
2022/02/26 10:05:10;;;;;;;23.70;13.47;;;9.50;99.90;;;;;;5052311;28;20885;-82
2022/02/26 10:07:39;;;;;;;36.87;14.67;;;9.70;99.90;;;;;;5053240;28;20415;-82
2022/02/26 10:10:15;;;;;;;25.60;12.50;;;9.60;99.90;;;;;;5053537;28;20450;-84
2022/02/26 10:12:41;;;;;;;22.83;13.10;;;9.50;99.90;;;;;;5053519;28;20560;-82
2022/02/26 10:15:25;;;;;;;28.90;13.63;;;9.40;99.90;;;;;;5055907;28;20466;-82
2022/02/26 10:18:21;;;;;;;22.20;12.10;;;9.40;99.90;;;;;;5038997;28;20956;-82
2022/02/26 10:20:54;;;;;;;25.00;12.40;;;9.20;99.90;;;;;;5044434;28;20460;-82
2022/02/26 10:23:22;;;;;;;30.57;14.70;;;9.20;99.90;;;;;;5057312;28;20493;-82
2022/02/26 10:25:48;;;;;;;30.23;14.83;;;9.20;99.90;;;;;;5056713;28;20433;-82
2022/02/26 10:28:15;;;;;;;25.13;13.80;;;9.60;99.90;;;;;;5056697;28;20447;-82
2022/02/26 10:30:46;;;;;;;26.07;13.20;;;9.70;99.90;;;;;;5055109;28;20425;-82
2022/02/26 10:33:12;;;;;;;29.47;13.40;;;9.90;99.90;;;;;;5056580;28;20769;-85
2022/02/26 10:35:46;;;;;;;28.23;14.40;;;10.10;99.90;;;;;;5056606;28;20446;-82
2022/02/26 10:38:14;;;;;;;24.70;12.17;;;10.30;99.90;;;;;;5056139;28;20415;-84
2022/02/26 10:40:47;;;;;;;28.80;12.53;;;10.40;99.90;;;;;;5056621;28;20516;-84
2022/02/26 10:43:12;;;;;;;22.63;11.73;;;11.10;99.90;;;;;;5055611;28;20544;-82
2022/02/26 10:45:38;;;;;;;24.90;14.77;;;11.90;99.90;;;;;;5054702;28;20869;-83
2022/02/26 10:48:04;;;;;;;22.73;13.23;;;13.20;99.90;;;;;;5036566;28;20589;-83
2022/02/26 10:50:33;;;;;;;22.73;13.07;;;13.90;99.90;;;;;;5054747;28;20699;-82
2022/02/26 10:53:04;;;;;;;24.93;13.10;;;14.60;99.90;;;;;;5054858;28;20176;-82
2022/02/26 10:55:52;;;;;;;21.70;12.67;;;14.30;99.90;;;;;;5054573;28;20433;-82
2022/02/26 10:58:26;;;;;;;27.03;13.43;;;13.80;99.90;;;;;;5054352;28;20410;-82
2022/02/26 11:00:58;;;;;;;24.73;12.40;;;13.60;99.90;;;;;;5054848;28;20399;-83
2022/02/26 11:03:24;;;;;;;23.00;11.70;;;13.70;99.90;;;;;;5053407;28;20411;-82
2022/02/26 11:05:53;;;;;;;23.87;13.67;;;14.50;99.90;;;;;;5053045;28;20427;-80
2022/02/26 11:08:19;;;;;;;26.40;11.80;;;14.40;99.90;;;;;;5054718;28;20810;-82
2022/02/26 11:10:46;;;;;;;22.30;12.50;;;15.20;99.90;;;;;;5054611;28;20430;-81
2022/02/26 11:13:13;;;;;;;30.23;14.23;;;17.70;99.90;;;;;;5053216;28;20422;-81
2022/02/26 11:15:40;;;;;;;20.20;12.43;;;18.50;99.90;;;;;;5054193;28;20510;-81
2022/02/26 11:18:07;;;;;;;27.23;14.37;;;20.30;95.90;;;;;;5054141;28;20851;-81
2022/02/26 11:20:34;;;;;;;25.53;12.80;;;20.60;91.20;;;;;;5054052;28;20418;-82
2022/02/26 11:23:00;;;;;;;28.77;12.50;;;21.70;87.10;;;;;;5054267;28;20493;-81
2022/02/26 11:25:27;;;;;;;23.20;12.90;;;23.30;76.90;;;;;;5053460;28;20535;-81
2022/02/26 11:27:53;;;;;;;23.97;12.00;;;25.30;64.20;;;;;;5053655;28;20417;-81
2022/02/26 11:30:26;;;;;;;22.63;12.30;;;26.80;56.10;;;;;;5053930;28;20532;-81
2022/02/26 11:32:51;;;;;;;16.20;8.73;;;27.70;52.10;;;;;;5054069;28;20415;-82
2022/02/26 11:35:24;;;;;;;17.07;10.17;;;;;;;;;;5052381;28;20831;-81
2022/02/26 11:37:51;;;;;;;24.47;10.27;;;24.70;44.20;;;;;;5053742;28;20202;-82
2022/02/26 11:40:18;;;;;;;21.00;11.20;;;22.40;44.40;;;;;;5074813;23;20498;-78
2022/02/26 11:42:45;;;;;;;18.33;10.40;;;20.40;47.50;;;;;;5049200;28;20472;-80
2022/02/26 11:45:30;;;;;;;25.93;10.33;;;18.70;50.20;;;;;;5049966;28;20411;-80
2022/02/26 11:48:01;;;;;;;25.00;11.80;;;17.30;55.00;;;;;;5047553;28;20506;-80
2022/02/26 11:50:39;;;;;;;43.77;13.30;;;16.30;64.20;;;;;;5045966;28;20704;-81
2022/02/26 11:53:10;;;;;;;20.33;10.30;;;16.10;81.60;;;;;;5046009;28;20418;-80
2022/02/26 11:55:53;;;;;;;24.20;10.20;;;18.20;78.60;;;;;;5047702;28;20428;-81
2022/02/26 11:58:31;;;;;;;24.30;9.90;;;20.10;70.80;;;;;;5044078;28;20425;-81
2022/02/26 12:01:06;;;;;;;19.20;8.90;;;22.30;65.30;;;;;;5045731;28;20418;-81
2022/02/26 12:03:44;;;;;;;21.33;9.70;;;23.30;54.70;;;;;;5045684;28;20476;-81
2022/02/26 12:06:11;;;;;;;16.50;7.97;;;22.60;54.70;;;;;;5043915;28;20438;-81
2022/02/26 12:08:47;;;;;;;15.03;7.70;;;21.60;54.30;;;;;;5044945;28;20470;-81
2022/02/26 12:11:20;;;;;;;17.73;6.93;;;20.80;54.50;;;;;;5047002;28;20787;-81
2022/02/26 12:14:21;;;;;;;13.73;7.40;;;19.70;54.70;;;;;;5047400;28;20487;-81
2022/02/26 12:16:56;;;;;;;14.00;6.90;;;19.60;58.10;;;;;;5043116;28;20442;-81
2022/02/26 12:19:25;;;;;;;14.07;6.60;;;20.30;56.40;;;;;;5046800;28;20474;-81
2022/02/26 12:21:59;;;;;;;20.30;5.50;;;21.40;53.90;;;;;;5045602;28;20433;-80
2022/02/26 12:24:28;;;;;;;8.70;4.30;;;22.10;53.20;;;;;;5039233;28;20426;-74
2022/02/26 12:27:09;;;;;;;9.23;4.07;;;22.20;52.40;;;;;;5036838;28;20434;-81
2022/02/26 12:29:44;;;;;;;11.00;5.37;;;23.50;50.20;;;;;;5041963;28;20468;-80
2022/02/26 12:32:13;;;;;;;9.37;5.33;;;25.20;48.00;;;;;;5039674;28;20438;-81
2022/02/26 12:34:41;;;;;;;11.50;5.37;;;25.90;43.10;;;;;;5036991;28;20445;-81
2022/02/26 12:37:13;;;;;;;13.20;6.27;;;25.40;44.70;;;;;;5036890;28;20833;-81
2022/02/26 12:39:44;;;;;;;10.00;4.80;;;24.00;43.70;;;;;;5036905;28;20426;-80
2022/02/26 12:42:09;;;;;;;10.00;5.73;;;22.40;43.40;;;;;;5035322;28;20508;-80
2022/02/26 12:44:39;;;;;;;14.43;6.07;;;21.30;44.50;;;;;;5037019;28;20422;-80